Time;durP1;ratioP1;P1;durP2;ratioP2;P2;SDS_P1;SDS_P2;PMS_P1;PMS_P2;Temp;Humidity;BMP_temperature;BMP_pressure;BME280_temperature;BME280_humidity;BME280_pressure;Samples;Min_cycle;Max_cycle;Signal;HPM_P1;HPM_P2
2022/08/01 08:37:53;;;;;;;2.58;1.20;;;23.30;77.90;;;;;;5069503;28;20386;-47
2022/08/01 08:40:21;;;;;;;0.80;0.80;;;23.10;95.70;;;;;;5069479;28;20033;-49
2022/08/01 08:42:47;;;;;;;4.00;1.10;;;23.30;67.30;;;;;;5069293;28;20021;-49
2022/08/01 08:45:13;;;;;;;4.00;0.90;;;;;;;;;;5069695;28;20434;-51
2022/08/01 08:47:41;;;;;;;5.25;1.17;;;23.40;66.10;;;;;;5069208;28;20029;-48
2022/08/01 08:50:07;;;;;;;2.72;0.93;;;23.70;94.80;;;;;;5069576;28;20414;-50
2022/08/01 08:52:37;;;;;;;5.45;0.68;;;23.40;94.40;;;;;;5069196;28;20036;-48
2022/08/01 08:55:03;;;;;;;4.47;1.02;;;;;;;;;;5069270;28;20029;-50
2022/08/01 08:57:30;;;;;;;2.78;1.08;;;23.30;64.50;;;;;;5069159;28;20376;-48
2022/08/01 08:59:56;;;;;;;2.90;1.10;;;;;;;;;;5069077;28;20096;-48
2022/08/01 09:02:22;;;;;;;2.90;1.00;;;23.70;93.90;;;;;;5068827;28;20556;-48
2022/08/01 09:04:49;;;;;;;2.70;0.93;;;23.80;64.00;;;;;;5068947;28;20103;-49
2022/08/01 09:07:15;;;;;;;2.50;1.00;;;;;;;;;;5068884;28;20025;-49
2022/08/01 09:09:41;;;;;;;4.75;1.30;;;;;;;;;;5068874;28;20395;-48
2022/08/01 09:12:08;;;;;;;4.47;1.17;;;;;;;;;;5068853;28;20032;-48
2022/08/01 09:14:35;;;;;;;5.70;1.50;;;24.40;81.30;;;;;;5068909;28;20040;-46
2022/08/01 09:17:10;;;;;;;4.28;1.10;;;24.10;93.60;;;;;;5069076;28;20081;-46
2022/08/01 09:19:52;;;;;;;7.47;1.40;;;24.20;63.40;;;;;;5068893;28;20027;-46
2022/08/01 09:22:22;;;;;;;3.90;1.20;;;24.00;93.50;;;;;;5068860;28;20025;-46
2022/08/01 09:25:05;;;;;;;3.03;1.20;;;24.50;93.50;;;;;;5068731;28;20440;-46
2022/08/01 09:27:32;;;;;;;6.28;1.30;;;24.00;76.00;;;;;;5068712;28;20064;-47
2022/08/01 09:30:15;;;;;;;3.38;1.17;;;24.60;93.40;;;;;;5067515;28;20150;-46
2022/08/01 09:33:00;;;;;;;3.17;1.48;;;24.20;66.40;;;;;;5068670;28;20036;-49
2022/08/01 09:35:33;;;;;;;3.30;1.10;;;24.80;93.50;;;;;;5068500;28;20029;-51
2022/08/01 09:38:22;;;;;;;5.75;1.77;;;24.40;59.20;;;;;;5068576;28;20060;-48
2022/08/01 09:40:56;;;;;;;3.60;1.63;;;24.60;59.30;;;;;;5068309;28;20032;-49
2022/08/01 09:43:24;;;;;;;6.63;1.50;;;24.40;62.80;;;;;;5068178;28;20029;-48
2022/08/01 09:45:51;;;;;;;5.43;1.85;;;24.90;93.40;;;;;;5068078;28;20066;-50
2022/08/01 09:48:17;;;;;;;6.90;1.52;;;24.60;93.20;;;;;;5059978;28;20029;-50
2022/08/01 09:50:45;;;;;;;3.75;1.40;;;24.90;63.10;;;;;;5053529;28;20475;-48
2022/08/01 09:53:12;;;;;;;7.93;2.10;;;25.10;74.90;;;;;;5055036;28;20066;-51
2022/08/01 09:55:39;;;;;;;6.22;1.80;;;25.10;93.10;;;;;;5054741;28;20128;-50
2022/08/01 09:58:06;;;;;;;2.75;1.48;;;25.00;62.00;;;;;;5054917;28;20086;-48
2022/08/01 10:00:32;;;;;;;4.15;1.20;;;25.10;62.10;;;;;;5054854;28;20029;-49
2022/08/01 10:02:59;;;;;;;4.50;1.58;;;;;;;;;;5054704;28;20056;-49
2022/08/01 10:05:33;;;;;;;5.82;1.70;;;25.40;84.50;;;;;;5054818;28;20029;-50
2022/08/01 10:08:01;;;;;;;3.53;1.10;;;25.40;93.20;;;;;;5054724;28;20080;-47
2022/08/01 10:10:27;;;;;;;6.10;1.27;;;24.80;60.50;;;;;;5054571;28;20479;-46
2022/08/01 10:12:55;;;;;;;4.32;1.63;;;25.40;69.20;;;;;;5054464;28;20033;-46
2022/08/01 10:15:22;;;;;;;6.97;1.40;;;25.20;74.80;;;;;;5054335;28;20021;-46
2022/08/01 10:17:54;;;;;;;3.92;1.30;;;25.30;92.10;;;;;;5054566;28;20457;-46
2022/08/01 10:20:24;;;;;;;4.97;1.42;;;25.50;93.30;;;;;;5054152;28;20036;-45
2022/08/01 10:22:50;;;;;;;4.50;1.47;;;;;;;;;;5054297;28;20021;-45
2022/08/01 10:25:17;;;;;;;5.10;1.42;;;25.60;93.30;;;;;;5054207;28;20475;-46
2022/08/01 10:27:47;;;;;;;6.78;1.30;;;25.10;72.90;;;;;;5054177;28;20029;-48
2022/08/01 10:30:13;;;;;;;2.80;1.08;;;25.30;93.20;;;;;;5054116;28;20035;-48
2022/08/01 10:32:42;;;;;;;4.03;1.15;;;25.10;93.00;;;;;;5054057;28;20039;-48
2022/08/01 10:35:08;;;;;;;5.28;1.45;;;25.50;86.80;;;;;;5054058;28;20071;-47
2022/08/01 10:37:35;;;;;;;3.45;1.25;;;25.30;62.40;;;;;;5053899;28;20048;-49
2022/08/01 10:40:01;;;;;;;5.40;1.05;;;25.50;93.10;;;;;;5053840;28;20079;-47
2022/08/01 10:42:28;;;;;;;7.13;1.60;;;;;;;;;;5052602;28;20116;-47
2022/08/01 10:44:55;;;;;;;5.90;1.30;;;25.40;62.30;;;;;;5053740;28;20021;-45
2022/08/01 10:47:29;;;;;;;5.07;1.60;;;25.50;66.50;;;;;;5053853;28;20029;-45
2022/08/01 10:50:13;;;;;;;4.00;0.75;;;25.40;65.00;;;;;;5053855;28;20537;-47
2022/08/01 10:52:39;;;;;;;4.50;1.20;;;25.20;93.00;;;;;;5053755;28;20029;-47
2022/08/01 10:55:06;;;;;;;3.95;1.38;;;25.50;92.90;;;;;;5053618;28;20123;-46
2022/08/01 10:57:45;;;;;;;5.30;1.40;;;25.20;87.60;;;;;;5053482;28;20555;-46
2022/08/01 11:00:18;;;;;;;4.75;1.20;;;25.50;58.40;;;;;;5052495;28;20169;-44
2022/08/01 11:03:00;;;;;;;4.55;1.15;;;25.70;79.00;;;;;;5053822;28;20445;-46
2022/08/01 11:05:30;;;;;;;2.90;1.02;;;25.80;74.90;;;;;;5053664;28;20023;-45
2022/08/01 11:07:57;;;;;;;3.60;1.13;;;25.60;74.10;;;;;;5053591;28;20399;-47
2022/08/01 11:10:38;;;;;;;4.35;1.20;;;25.90;70.50;;;;;;5053114;28;20031;-47
2022/08/01 11:13:07;;;;;;;3.70;0.93;;;25.90;92.80;;;;;;5053114;28;20108;-48
2022/08/01 11:15:34;;;;;;;3.97;1.10;;;25.60;61.20;;;;;;5053011;28;20025;-47
2022/08/01 11:18:02;;;;;;;2.97;1.00;;;25.70;67.80;;;;;;5053021;28;20029;-50
2022/08/01 11:20:33;;;;;;;3.47;1.20;;;25.60;61.60;;;;;;5052991;28;20025;-50
2022/08/01 11:23:01;;;;;;;4.57;1.00;;;25.80;92.80;;;;;;5053075;28;20107;-46
2022/08/01 11:25:36;;;;;;;5.35;1.30;;;23.80;57.00;;;;;;5052931;28;20036;-46
2022/08/01 11:28:14;;;;;;;6.43;1.27;;;25.90;92.70;;;;;;5052876;28;20029;-50
2022/08/01 11:30:54;;;;;;;2.90;1.02;;;25.50;92.30;;;;;;5052691;28;20036;-49
2022/08/01 11:33:38;;;;;;;;;;;25.50;58.20;;;;;;5053454;28;20096;-49
2022/08/01 11:36:10;;;;;;;2.10;0.80;;;25.30;92.40;;;;;;5051269;28;20019;-45
2022/08/01 11:38:42;;;;;;;3.92;1.00;;;25.30;84.60;;;;;;5052823;28;20029;-47
2022/08/01 11:41:14;;;;;;;2.47;0.90;;;25.60;57.60;;;;;;5053099;28;20066;-46
2022/08/01 11:43:59;;;;;;;4.20;1.10;;;25.90;84.40;;;;;;5052971;28;20028;-46
2022/08/01 11:46:54;;;;;;;3.63;1.00;;;25.90;58.20;;;;;;5052597;28;20033;-47
2022/08/01 11:49:25;;;;;;;1.92;0.80;;;25.30;92.40;;;;;;5052608;28;20055;-46
2022/08/01 11:52:09;;;;;;;6.13;1.00;;;25.80;57.50;;;;;;5052530;28;20029;-46
2022/08/01 11:54:40;;;;;;;1.52;0.77;;;25.70;60.90;;;;;;5052489;28;20111;-46
2022/08/01 11:57:08;;;;;;;2.35;1.00;;;25.70;60.90;;;;;;5052362;28;20368;-49
2022/08/01 11:59:39;;;;;;;2.15;0.80;;;25.80;92.40;;;;;;5052574;28;20027;-49
2022/08/01 12:02:19;;;;;;;3.33;0.70;;;26.10;92.50;;;;;;5052754;28;20433;-48
2022/08/01 12:04:53;;;;;;;;;;;25.70;61.60;;;;;;5052993;28;20021;-49
2022/08/01 12:07:19;;;;;;;2.33;0.80;;;;;;;;;;5052531;28;19931;-48
2022/08/01 12:09:46;;;;;;;2.65;0.98;;;;;;;;;;5052482;28;20037;-49
2022/08/01 12:12:17;;;;;;;2.75;1.10;;;25.50;92.30;;;;;;5052456;28;20372;-48
2022/08/01 12:14:45;;;;;;;3.55;1.10;;;25.80;60.30;;;;;;5052520;28;20035;-48
2022/08/01 12:17:10;;;;;;;3.20;0.90;;;25.50;92.10;;;;;;5052332;28;20067;-49
2022/08/01 12:19:37;;;;;;;4.95;1.15;;;;;;;;;;5052347;28;20061;-52
2022/08/01 12:22:11;;;;;;;4.53;1.30;;;26.00;92.30;;;;;;5052253;28;20506;-49
2022/08/01 12:24:38;;;;;;;4.85;1.15;;;25.90;92.20;;;;;;5052506;28;20439;-51
2022/08/01 12:27:05;;;;;;;2.38;0.95;;;26.00;60.00;;;;;;5052185;28;20078;-50
2022/08/01 12:29:34;;;;;;;3.65;1.10;;;26.00;92.00;;;;;;5052053;28;20025;-52
2022/08/01 12:32:00;;;;;;;2.47;0.80;;;26.00;92.00;;;;;;5052249;28;20514;-50
2022/08/01 12:34:28;;;;;;;2.88;1.02;;;25.90;92.00;;;;;;5052129;28;20029;-49
2022/08/01 12:36:56;;;;;;;2.28;0.90;;;25.80;59.60;;;;;;5051939;28;20049;-49
2022/08/01 12:39:21;;;;;;;3.55;0.90;;;;;;;;;;5052146;28;20021;-50
2022/08/01 12:41:48;;;;;;;2.40;1.00;;;;;;;;;;5051995;28;20029;-48
2022/08/01 12:44:14;;;;;;;1.90;0.90;;;26.20;82.50;;;;;;5052095;28;20060;-50
2022/08/01 12:46:41;;;;;;;1.65;0.73;;;25.90;91.90;;;;;;5052288;28;20445;-49
2022/08/01 12:49:07;;;;;;;2.88;0.80;;;26.20;92.00;;;;;;5050932;28;20056;-50
2022/08/01 12:51:33;;;;;;;3.05;0.98;;;26.00;92.00;;;;;;5052072;28;20067;-51
2022/08/01 12:53:59;;;;;;;4.57;0.95;;;25.90;91.90;;;;;;5052095;28;20390;-48
2022/08/01 12:56:33;;;;;;;3.40;0.85;;;25.80;56.40;;;;;;5052017;28;20487;-49
2022/08/01 12:59:00;;;;;;;1.45;0.70;;;26.30;91.90;;;;;;5051912;28;20036;-50
2022/08/01 13:01:26;;;;;;;2.38;0.93;;;25.90;59.50;;;;;;5050549;28;20479;-50
2022/08/01 13:04:06;;;;;;;1.75;0.90;;;25.70;91.70;;;;;;5052208;28;20412;-51
2022/08/01 13:06:32;;;;;;;3.88;0.88;;;26.10;91.80;;;;;;5051967;28;20029;-48
2022/08/01 13:09:11;;;;;;;1.75;0.55;;;25.60;91.60;;;;;;5052130;28;20025;-49
2022/08/01 13:11:37;;;;;;;1.23;0.88;;;26.30;91.80;;;;;;5051805;28;20028;-50
2022/08/01 13:14:02;;;;;;;2.38;0.90;;;25.80;91.50;;;;;;5051775;28;20063;-46
2022/08/01 13:16:29;;;;;;;3.00;1.10;;;;;;;;;;5051700;28;20069;-47
2022/08/01 13:18:56;;;;;;;2.38;0.90;;;26.00;59.10;;;;;;5051744;28;20029;-46
2022/08/01 13:21:27;;;;;;;1.48;0.90;;;25.70;91.50;;;;;;5051698;28;20032;-47
2022/08/01 13:24:13;;;;;;;2.42;0.90;;;26.30;91.60;;;;;;5054490;28;20515;-45
2022/08/01 13:26:55;;;;;;;4.05;0.98;;;26.20;88.00;;;;;;5055815;28;20064;-46
2022/08/01 13:29:28;;;;;;;3.10;0.73;;;26.10;58.90;;;;;;5055569;28;20087;-46
2022/08/01 13:31:54;;;;;;;3.25;1.13;;;26.10;91.50;;;;;;5055749;28;20025;-46
2022/08/01 13:34:32;;;;;;;1.80;0.63;;;26.30;89.80;;;;;;5055400;28;20379;-46
2022/08/01 13:36:58;;;;;;;2.72;1.05;;;25.90;91.60;;;;;;5055182;28;20474;-46
2022/08/01 13:42:13;;;;;;;4.18;1.10;;;26.10;91.60;;;;;;5055325;28;20040;-46
2022/08/01 13:44:39;;;;;;;2.97;0.82;;;;;;;;;;5055287;28;20064;-47
2022/08/01 13:47:06;;;;;;;2.03;0.80;;;26.00;58.50;;;;;;5055172;28;20056;-46
2022/08/01 13:49:32;;;;;;;2.35;1.00;;;26.10;91.30;;;;;;5055133;28;20029;-46
2022/08/01 13:51:59;;;;;;;1.80;0.60;;;25.80;91.20;;;;;;5055328;28;20079;-49
2022/08/01 13:54:25;;;;;;;2.67;0.90;;;26.40;91.40;;;;;;5054988;28;20537;-46
2022/08/01 13:56:52;;;;;;;3.22;0.90;;;26.30;91.40;;;;;;5054906;28;20537;-49
2022/08/01 13:59:18;;;;;;;1.73;0.77;;;;;;;;;;5055196;28;20013;-47
2022/08/01 14:01:46;;;;;;;2.15;0.68;;;26.80;58.90;;;;;;5054837;28;20376;-46
2022/08/01 14:04:12;;;;;;;2.25;0.93;;;26.30;91.40;;;;;;5054857;28;20086;-47
2022/08/01 14:06:38;;;;;;;3.05;0.88;;;26.00;91.30;;;;;;5054880;28;20025;-49
2022/08/01 14:09:05;;;;;;;3.97;1.10;;;26.00;91.40;;;;;;5054833;28;20025;-47
2022/08/01 14:11:31;;;;;;;2.35;1.02;;;26.10;91.50;;;;;;5054737;28;20079;-47
2022/08/01 14:13:57;;;;;;;4.30;1.00;;;26.30;91.40;;;;;;5054652;28;20033;-49
2022/08/01 14:16:23;;;;;;;2.83;0.88;;;25.70;91.40;;;;;;5054541;28;20033;-47
2022/08/01 14:18:48;;;;;;;2.42;0.75;;;25.90;61.80;;;;;;5054590;28;20475;-46
2022/08/01 14:21:14;;;;;;;2.75;0.75;;;25.90;91.30;;;;;;5054542;28;20029;-47
2022/08/01 14:23:42;;;;;;;1.83;0.70;;;26.10;91.30;;;;;;5054750;28;20113;-47
2022/08/01 14:26:08;;;;;;;4.20;1.00;;;26.10;91.30;;;;;;5054429;28;20414;-46
2022/08/01 14:28:34;;;;;;;1.67;0.80;;;25.60;91.20;;;;;;5054463;28;20036;-48
2022/08/01 14:31:00;;;;;;;3.70;0.82;;;;;;;;;;5054309;28;20024;-46
2022/08/01 14:33:26;;;;;;;1.48;0.70;;;26.30;91.20;;;;;;5054440;28;20112;-46
2022/08/01 14:35:52;;;;;;;1.83;0.98;;;25.90;91.40;;;;;;5053861;28;20052;-47
2022/08/01 14:38:18;;;;;;;2.20;0.68;;;25.70;91.20;;;;;;5054187;28;20072;-46
2022/08/01 14:40:46;;;;;;;1.75;0.65;;;;;;;;;;5054422;28;20082;-48
2022/08/01 14:43:13;;;;;;;1.75;0.60;;;25.70;91.20;;;;;;5054105;28;20017;-48
2022/08/01 14:45:39;;;;;;;2.45;0.98;;;25.90;91.30;;;;;;5054415;28;20056;-52
2022/08/01 14:48:04;;;;;;;1.40;0.70;;;26.30;91.30;;;;;;5054039;28;20055;-51
2022/08/01 14:50:30;;;;;;;1.92;0.80;;;26.30;91.40;;;;;;5054278;28;20440;-49
2022/08/01 14:52:56;;;;;;;2.15;0.60;;;26.10;91.10;;;;;;5053888;28;20032;-49
2022/08/01 14:55:24;;;;;;;3.95;1.15;;;25.50;91.00;;;;;;5054184;28;20066;-49
2022/08/01 14:57:50;;;;;;;2.05;1.00;;;25.60;91.00;;;;;;5053778;28;20116;-51
2022/08/01 15:00:16;;;;;;;3.45;1.02;;;25.90;90.90;;;;;;5053773;28;20159;-49
2022/08/01 15:02:42;;;;;;;1.85;0.70;;;25.70;89.70;;;;;;5053767;28;20025;-50
2022/08/01 15:05:08;;;;;;;3.35;0.88;;;26.30;74.80;;;;;;5053741;28;20028;-50
2022/08/01 15:07:34;;;;;;;4.80;0.77;;;;;;;;;;5053631;28;20100;-50
2022/08/01 15:10:00;;;;;;;2.92;1.00;;;;;;;;;;5053856;28;20035;-51
2022/08/01 15:12:26;;;;;;;2.25;0.80;;;26.20;90.90;;;;;;5053577;28;20120;-51
2022/08/01 15:14:52;;;;;;;2.75;0.70;;;26.10;90.80;;;;;;5053550;28;20112;-49
2022/08/01 15:17:19;;;;;;;1.60;0.73;;;26.10;57.50;;;;;;5053399;28;20103;-50
2022/08/01 15:19:49;;;;;;;1.75;0.93;;;26.40;91.10;;;;;;5053490;28;20029;-53
2022/08/01 15:22:15;;;;;;;1.67;0.82;;;25.90;90.80;;;;;;5053454;28;20064;-50
2022/08/01 15:24:42;;;;;;;3.97;0.95;;;;;;;;;;5053346;28;20025;-48
2022/08/01 15:27:08;;;;;;;2.63;0.70;;;;;;;;;;5053416;28;20402;-52
2022/08/01 15:29:34;;;;;;;3.55;1.13;;;;;;;;;;5053228;28;20029;-47
2022/08/01 15:32:01;;;;;;;3.05;0.82;;;26.10;56.50;;;;;;5053208;28;20035;-48
2022/08/01 15:34:26;;;;;;;0.95;0.75;;;26.40;91.10;;;;;;5053193;28;20104;-46
2022/08/01 15:36:52;;;;;;;2.75;0.85;;;25.90;73.40;;;;;;5052978;28;20132;-46
2022/08/01 15:39:17;;;;;;;1.65;0.77;;;26.50;68.60;;;;;;5053069;28;20063;-46
2022/08/01 15:41:43;;;;;;;1.42;0.70;;;;;;;;;;5053188;28;20028;-54
2022/08/01 15:44:09;;;;;;;3.97;0.88;;;26.20;81.20;;;;;;5053008;28;20036;-54
2022/08/01 15:46:38;;;;;;;2.03;0.60;;;26.50;90.70;;;;;;5052459;28;20060;-53
2022/08/01 15:49:04;;;;;;;2.47;0.80;;;26.20;56.90;;;;;;5052840;28;20025;-50
2022/08/01 15:51:31;;;;;;;2.25;0.80;;;26.50;90.80;;;;;;5052824;28;20108;-53
2022/08/01 15:53:56;;;;;;;2.50;0.73;;;26.20;90.80;;;;;;5053079;28;20021;-51
2022/08/01 15:56:22;;;;;;;3.35;1.00;;;26.50;90.90;;;;;;5052678;28;20043;-49
2022/08/01 15:58:48;;;;;;;2.22;0.70;;;26.60;90.80;;;;;;5053034;28;20044;-46
2022/08/01 16:01:14;;;;;;;1.63;0.70;;;;;;;;;;5052684;28;20017;-46
2022/08/01 16:03:40;;;;;;;3.22;0.82;;;;;;;;;;5052567;28;20033;-48
2022/08/01 16:06:07;;;;;;;1.55;0.90;;;;;;;;;;5052415;28;20368;-48
2022/08/01 16:08:32;;;;;;;2.60;0.90;;;26.60;90.60;;;;;;5052597;28;20029;-46
2022/08/01 16:10:58;;;;;;;3.78;0.90;;;;;;;;;;5052245;28;20017;-47
2022/08/01 16:13:24;;;;;;;2.42;0.80;;;26.60;90.40;;;;;;5052305;28;20021;-47
2022/08/01 16:15:50;;;;;;;2.35;0.60;;;26.60;90.40;;;;;;5052250;28;20106;-46
2022/08/01 16:18:16;;;;;;;1.38;0.93;;;;;;;;;;5052480;28;20033;-48
2022/08/01 16:20:42;;;;;;;1.85;0.85;;;26.50;69.40;;;;;;5052657;28;20390;-47
2022/08/01 16:23:08;;;;;;;1.30;0.77;;;;;;;;;;5052424;28;20025;-47
2022/08/01 16:25:34;;;;;;;3.47;1.00;;;26.40;90.10;;;;;;5052302;28;20025;-46
2022/08/01 16:28:00;;;;;;;2.03;0.77;;;26.30;90.10;;;;;;5052324;28;20017;-46
2022/08/01 16:30:26;;;;;;;2.38;0.60;;;26.60;90.20;;;;;;5052217;28;20032;-47
2022/08/01 16:32:52;;;;;;;1.52;0.80;;;;;;;;;;5052245;28;20021;-48
2022/08/01 16:35:18;;;;;;;2.53;0.75;;;26.80;55.70;;;;;;5052278;28;20142;-47
2022/08/01 16:37:44;;;;;;;2.28;0.60;;;26.40;90.00;;;;;;5051999;28;20124;-47
2022/08/01 16:40:10;;;;;;;1.67;0.70;;;26.40;67.70;;;;;;5052106;28;20525;-47
2022/08/01 16:42:36;;;;;;;2.38;0.85;;;;;;;;;;5052134;28;20032;-48
2022/08/01 16:45:02;;;;;;;2.03;0.70;;;;;;;;;;5052047;28;20025;-48
2022/08/01 16:47:28;;;;;;;3.10;0.80;;;;;;;;;;5052056;28;20025;-46
2022/08/01 16:49:54;;;;;;;1.55;0.60;;;26.40;80.10;;;;;;5052045;28;20025;-48
2022/08/01 16:52:20;;;;;;;3.25;0.77;;;;;;;;;;5052099;28;20403;-46
2022/08/01 16:54:46;;;;;;;1.30;0.77;;;;;;;;;;5052042;28;20090;-51
2022/08/01 16:57:12;;;;;;;1.42;0.70;;;;;;;;;;5052001;28;20045;-50
2022/08/01 16:59:40;;;;;;;2.55;0.70;;;26.10;55.00;;;;;;5055847;28;20029;-50
2022/08/01 17:02:07;;;;;;;5.85;0.73;;;;;;;;;;5055943;28;20035;-51
2022/08/01 17:04:32;;;;;;;2.95;1.02;;;26.00;90.30;;;;;;5055958;28;20036;-50
2022/08/01 17:07:00;;;;;;;4.38;0.80;;;26.30;90.50;;;;;;5055907;28;20029;-50
2022/08/01 17:09:26;;;;;;;2.00;0.73;;;25.80;90.30;;;;;;5055864;28;20429;-52
2022/08/01 17:11:51;;;;;;;4.30;0.55;;;26.20;85.50;;;;;;5055760;28;20253;-47
2022/08/01 17:14:17;;;;;;;3.70;0.90;;;;;;;;;;5055768;28;20066;-48
2022/08/01 17:16:46;;;;;;;2.53;0.63;;;;;;;;;;5055611;28;20399;-47
2022/08/01 17:19:11;;;;;;;6.10;1.02;;;25.80;59.40;;;;;;5055617;28;20398;-47
2022/08/01 17:21:37;;;;;;;2.15;0.77;;;;;;;;;;5055600;28;20036;-48
2022/08/01 17:24:03;;;;;;;2.08;0.80;;;25.80;90.50;;;;;;5055599;28;20045;-48
2022/08/01 17:26:29;;;;;;;2.25;0.82;;;26.40;90.70;;;;;;5055535;28;20025;-48
2022/08/01 17:28:55;;;;;;;1.88;0.73;;;;;;;;;;5055704;28;20044;-47
2022/08/01 17:31:21;;;;;;;2.38;0.75;;;;;;;;;;5055539;28;20055;-50
2022/08/01 17:33:47;;;;;;;1.55;0.80;;;;;;;;;;5055408;28;20033;-50
2022/08/01 17:36:14;;;;;;;3.65;0.85;;;26.20;55.10;;;;;;5055060;28;20041;-51
2022/08/01 17:38:40;;;;;;;2.22;0.70;;;;;;;;;;5055700;28;20024;-50
2022/08/01 17:41:05;;;;;;;2.17;0.90;;;;;;;;;;5055263;28;20021;-49
2022/08/01 17:43:32;;;;;;;2.67;0.65;;;;;;;;;;5055267;28;20076;-50
2022/08/01 17:45:58;;;;;;;1.80;0.80;;;;;;;;;;5055418;28;20438;-50
2022/08/01 17:48:28;;;;;;;1.60;0.70;;;;;;;;;;5055448;28;20422;-46
2022/08/01 17:50:54;;;;;;;1.75;0.60;;;;;;;;;;5055171;28;20112;-48
2022/08/01 17:53:22;;;;;;;3.65;0.90;;;;;;;;;;5055043;28;20033;-46
2022/08/01 17:55:48;;;;;;;1.75;0.77;;;;;;;;;;5054907;28;20162;-47
2022/08/01 17:58:16;;;;;;;3.03;0.82;;;25.70;90.50;;;;;;5054922;28;20057;-47
2022/08/01 18:00:46;;;;;;;1.70;0.60;;;25.50;64.50;;;;;;5054860;28;20545;-47
2022/08/01 18:03:16;;;;;;;0.93;0.60;;;26.20;90.50;;;;;;5054770;28;20426;-48
2022/08/01 18:05:42;;;;;;;3.90;1.00;;;26.30;90.40;;;;;;5054885;28;20112;-46
2022/08/01 18:08:08;;;;;;;3.03;0.85;;;;;;;;;;5054689;28;20171;-49
2022/08/01 18:10:33;;;;;;;3.05;0.90;;;25.80;65.50;;;;;;5054504;28;20025;-49
2022/08/01 18:13:00;;;;;;;2.85;0.63;;;;;;;;;;5054922;28;20407;-51
2022/08/01 18:15:27;;;;;;;3.72;1.00;;;26.40;90.50;;;;;;5054562;28;20029;-50
2022/08/01 18:17:53;;;;;;;3.50;0.80;;;25.90;90.20;;;;;;5054777;28;20427;-51
2022/08/01 18:20:20;;;;;;;2.58;0.93;;;26.40;90.30;;;;;;5054814;28;20021;-48
2022/08/01 18:22:46;;;;;;;3.33;0.90;;;26.00;90.20;;;;;;5054554;28;20021;-50
2022/08/01 18:25:12;;;;;;;3.47;1.02;;;25.60;81.40;;;;;;5054536;28;20028;-48
2022/08/01 18:27:38;;;;;;;1.75;0.68;;;;;;;;;;5054468;28;20029;-47
2022/08/01 18:30:06;;;;;;;5.38;1.05;;;25.80;57.10;;;;;;5054385;28;20028;-47
2022/08/01 18:32:34;;;;;;;4.32;0.93;;;25.80;90.30;;;;;;5054351;28;20025;-47
2022/08/01 18:35:00;;;;;;;5.53;1.10;;;25.70;82.40;;;;;;5054332;28;20110;-47
2022/08/01 18:37:26;;;;;;;4.75;1.08;;;25.70;90.10;;;;;;5053965;28;20044;-48
2022/08/01 18:39:52;;;;;;;4.68;1.00;;;;;;;;;;5054188;28;20032;-47
2022/08/01 18:42:18;;;;;;;4.13;1.15;;;;;;;;;;5054102;28;20025;-46
2022/08/01 18:44:44;;;;;;;2.55;1.30;;;;;;;;;;5054201;28;20159;-49
2022/08/01 18:47:10;;;;;;;1.88;0.77;;;;;;;;;;5054051;28;20036;-48
2022/08/01 18:49:36;;;;;;;3.75;0.63;;;;;;;;;;5054189;28;20032;-48
2022/08/01 18:52:02;;;;;;;2.53;0.63;;;25.70;77.80;;;;;;5053934;28;20028;-47
2022/08/01 18:54:28;;;;;;;4.30;1.23;;;;;;;;;;5053911;28;20021;-48
2022/08/01 18:56:54;;;;;;;3.38;0.70;;;;;;;;;;5054277;28;20387;-47
2022/08/01 18:59:20;;;;;;;2.58;0.73;;;25.70;75.50;;;;;;5053816;28;20075;-49
2022/08/01 19:01:46;;;;;;;3.10;0.73;;;;;;;;;;5053754;28;20020;-49
2022/08/01 19:04:12;;;;;;;4.35;0.98;;;26.20;71.00;;;;;;5053773;28;20033;-48
2022/08/01 19:06:38;;;;;;;1.98;0.73;;;;;;;;;;5053615;28;20364;-48
2022/08/01 19:09:04;;;;;;;2.95;1.27;;;26.10;84.10;;;;;;5053652;28;20078;-50
2022/08/01 19:11:31;;;;;;;4.65;1.00;;;26.30;89.10;;;;;;5053557;28;20025;-48
2022/08/01 19:13:57;;;;;;;4.53;1.20;;;26.30;90.20;;;;;;5053601;28;20024;-47
2022/08/01 19:16:23;;;;;;;3.42;0.82;;;26.40;90.30;;;;;;5053370;28;20041;-48
2022/08/01 19:18:48;;;;;;;2.40;0.90;;;26.10;90.30;;;;;;5053429;28;20067;-48
2022/08/01 19:21:14;;;;;;;2.83;0.70;;;26.00;90.30;;;;;;5052857;28;20061;-49
2022/08/01 19:26:26;;;;;;;2.53;0.80;;;26.20;90.20;;;;;;5053546;28;20410;-52
2022/08/01 19:29:06;;;;;;;3.05;0.70;;;26.10;52.50;;;;;;5053230;28;20025;-51
2022/08/01 19:31:37;;;;;;;;;;;25.90;56.80;;;;;;5053680;28;20032;-52
2022/08/01 19:34:06;;;;;;;1.88;0.90;;;25.90;90.20;;;;;;5053150;28;19909;-55
2022/08/01 19:36:39;;;;;;;1.00;0.75;;;26.10;65.80;;;;;;5052843;28;20095;-53
2022/08/01 19:39:08;;;;;;;1.92;0.80;;;25.90;90.10;;;;;;5053284;28;20036;-52
2022/08/01 19:41:35;;;;;;;4.10;0.70;;;26.00;90.20;;;;;;5053076;28;20379;-50
2022/08/01 19:44:05;;;;;;;4.75;0.90;;;26.10;90.00;;;;;;5052988;28;20279;-50
2022/08/01 19:46:33;;;;;;;;;;;25.90;53.30;;;;;;5053641;28;20426;-51
2022/08/01 19:48:58;;;;;;;2.88;0.82;;;25.70;90.10;;;;;;5053039;28;19940;-53
2022/08/01 19:51:27;;;;;;;2.08;0.70;;;25.90;90.00;;;;;;5052650;28;20061;-51
2022/08/01 19:53:54;;;;;;;3.55;0.75;;;26.20;90.10;;;;;;5052813;28;20029;-52
2022/08/01 19:56:20;;;;;;;1.85;0.55;;;25.90;54.70;;;;;;5052726;28;20039;-51
2022/08/01 19:58:51;;;;;;;1.60;0.60;;;26.20;90.00;;;;;;5052774;28;20025;-45
2022/08/01 20:01:17;;;;;;;6.20;1.42;;;25.60;90.00;;;;;;5052937;28;20063;-46
2022/08/01 20:03:50;;;;;;;3.55;0.77;;;25.70;90.10;;;;;;5052535;28;20561;-50
2022/08/01 20:06:17;;;;;;;7.35;0.88;;;26.30;90.20;;;;;;5052610;28;20029;-49
2022/08/01 20:08:43;;;;;;;4.18;0.80;;;26.30;90.20;;;;;;5052805;28;20048;-47
2022/08/01 20:11:10;;;;;;;4.95;0.77;;;25.50;90.00;;;;;;5052521;28;20027;-47
2022/08/01 20:13:37;;;;;;;1.50;0.45;;;25.60;90.00;;;;;;5052708;28;20025;-47
2022/08/01 20:16:05;;;;;;;1.15;0.80;;;25.90;55.40;;;;;;5052385;28;20039;-48
2022/08/01 20:18:32;;;;;;;4.35;0.65;;;;;;;;;;5052707;28;20140;-48
2022/08/01 20:20:59;;;;;;;2.42;0.50;;;26.00;55.60;;;;;;5052355;28;20044;-51
2022/08/01 20:23:26;;;;;;;7.43;0.85;;;25.70;89.20;;;;;;5052356;28;20447;-50
2022/08/01 20:25:57;;;;;;;20.23;1.08;;;26.20;54.20;;;;;;5052295;28;20379;-50
2022/08/01 20:28:28;;;;;;;1.63;0.57;;;25.70;87.00;;;;;;5052590;28;20095;-50
2022/08/01 20:30:57;;;;;;;3.83;0.63;;;25.90;51.10;;;;;;5052296;28;20057;-51
2022/08/01 20:33:24;;;;;;;2.08;0.77;;;;;;;;;;5052064;28;20033;-50
2022/08/01 20:35:52;;;;;;;3.08;0.70;;;25.70;52.80;;;;;;5052129;28;20108;-46
2022/08/01 20:38:23;;;;;;;3.85;0.68;;;26.40;50.30;;;;;;5052152;28;20033;-48
2022/08/01 20:40:50;;;;;;;2.95;0.50;;;25.60;83.80;;;;;;5052077;28;20033;-47
2022/08/01 20:43:20;;;;;;;5.05;1.00;;;26.10;84.30;;;;;;5052398;28;20471;-48
2022/08/01 20:45:47;;;;;;;2.42;0.80;;;25.90;84.50;;;;;;5052051;28;20029;-47
2022/08/01 20:48:15;;;;;;;3.03;0.65;;;25.60;84.60;;;;;;5051932;28;20078;-46
2022/08/01 20:53:28;;;;;;;2.40;0.80;;;;;;;;;;5052355;28;20064;-48
2022/08/01 20:56:03;;;;;;;2.33;0.88;;;25.80;49.80;;;;;;5052225;28;20054;-47
2022/08/01 20:59:03;;;;;;;3.92;0.52;;;26.00;85.00;;;;;;5051995;28;20048;-47
2022/08/01 21:01:38;;;;;;;1.20;0.70;;;25.80;50.50;;;;;;5051845;28;20025;-47
2022/08/01 21:04:07;;;;;;;2.53;0.60;;;25.90;85.40;;;;;;5051948;28;20025;-47
2022/08/01 21:06:44;;;;;;;3.13;0.90;;;26.00;85.70;;;;;;5051937;28;20021;-46
2022/08/01 21:09:17;;;;;;;1.23;0.60;;;25.70;51.00;;;;;;5051967;28;20108;-47
2022/08/01 21:11:46;;;;;;;4.50;1.02;;;25.90;86.10;;;;;;5051958;28;20036;-46
2022/08/01 21:14:16;;;;;;;4.70;1.05;;;25.50;76.40;;;;;;5051982;28;20029;-47
2022/08/01 21:16:50;;;;;;;2.75;0.80;;;25.80;86.60;;;;;;5051866;28;20028;-47
2022/08/01 21:19:24;;;;;;;5.10;0.77;;;26.00;86.70;;;;;;5051852;28;20067;-47
2022/08/01 21:22:09;;;;;;;2.90;0.90;;;25.80;52.40;;;;;;5052035;28;20021;-48
2022/08/01 21:24:49;;;;;;;2.75;1.00;;;26.00;87.40;;;;;;5051781;28;20029;-48
2022/08/01 21:27:16;;;;;;;2.63;0.90;;;25.80;51.40;;;;;;5051798;28;20108;-47
2022/08/01 21:29:46;;;;;;;5.05;0.77;;;25.80;52.80;;;;;;5051747;28;20104;-46
2022/08/01 21:32:14;;;;;;;2.70;0.98;;;25.70;87.70;;;;;;5051753;28;20217;-46
2022/08/01 21:34:45;;;;;;;1.38;0.60;;;25.60;87.60;;;;;;5052037;28;20030;-47
2022/08/01 21:37:14;;;;;;;3.70;0.68;;;25.70;67.50;;;;;;5051411;28;20049;-47
2022/08/01 21:39:43;;;;;;;1.42;0.68;;;25.70;53.60;;;;;;5051853;28;20143;-47
2022/08/01 21:42:10;;;;;;;2.58;0.80;;;25.70;88.10;;;;;;5051603;28;20028;-46
2022/08/01 21:44:44;;;;;;;1.30;0.60;;;25.30;87.80;;;;;;5053542;28;20029;-48
2022/08/01 21:47:10;;;;;;;1.10;0.70;;;;;;;;;;5055224;28;20075;-45
2022/08/01 21:49:36;;;;;;;2.33;0.60;;;;;;;;;;5055182;28;20021;-46
2022/08/01 21:52:07;;;;;;;1.48;0.60;;;25.50;62.40;;;;;;5055254;28;20506;-46
2022/08/01 21:54:58;;;;;;;2.75;0.95;;;25.40;88.00;;;;;;5055176;28;20017;-45
2022/08/01 21:57:54;;;;;;;5.78;0.70;;;25.70;61.20;;;;;;5054999;28;20036;-46
2022/08/01 22:00:22;;;;;;;1.45;0.77;;;;;;;;;;5055007;28;20021;-46
2022/08/01 22:03:10;;;;;;;1.83;0.75;;;25.80;88.50;;;;;;5054841;28;20084;-46